sensor_id;sensor_type;location;lat;lon;timestamp;pressure;altitude;pressure_sealevel;temperature;humidity
8318;BME280;4196;48.926;8.964;2024-02-21T00:00:12;100106.84;;;4.96;100.00
8318;BME280;4196;48.926;8.964;2024-02-21T00:02:58;100094.72;;;4.92;100.00
8318;BME280;4196;48.926;8.964;2024-02-21T00:05:48;100103.47;;;4.97;100.00
8318;BME280;4196;48.926;8.964;2024-02-21T00:08:34;100094.88;;;4.97;100.00
8318;BME280;4196;48.926;8.964;2024-02-21T00:11:21;100081.28;;;4.99;100.00
8318;BME280;4196;48.926;8.964;2024-02-21T00:14:07;100081.53;;;5.05;100.00
8318;BME280;4196;48.926;8.964;2024-02-21T00:16:54;100057.28;;;4.97;100.00
8318;BME280;4196;48.926;8.964;2024-02-21T00:19:41;100076.09;;;5.22;100.00
8318;BME280;4196;48.926;8.964;2024-02-21T00:22:27;100032.69;;;5.04;100.00
8318;BME280;4196;48.926;8.964;2024-02-21T00:25:17;100046.13;;;5.21;100.00
8318;BME280;4196;48.926;8.964;2024-02-21T00:28:04;100063.72;;;5.34;100.00
8318;BME280;4196;48.926;8.964;2024-02-21T00:30:52;100046.34;;;5.27;100.00
8318;BME280;4196;48.926;8.964;2024-02-21T00:33:39;100064.78;;;5.41;100.00
8318;BME280;4196;48.926;8.964;2024-02-21T00:36:26;100062.63;;;5.53;100.00
8318;BME280;4196;48.926;8.964;2024-02-21T00:39:13;100028.28;;;5.49;100.00
8318;BME280;4196;48.926;8.964;2024-02-21T00:41:59;100026.72;;;5.81;100.00
8318;BME280;4196;48.926;8.964;2024-02-21T00:44:45;100009.22;;;5.70;100.00
8318;BME280;4196;48.926;8.964;2024-02-21T00:47:32;100020.34;;;5.69;100.00
8318;BME280;4196;48.926;8.964;2024-02-21T00:50:19;100040.41;;;5.80;100.00
8318;BME280;4196;48.926;8.964;2024-02-21T00:53:05;100011.22;;;5.78;100.00
8318;BME280;4196;48.926;8.964;2024-02-21T00:55:52;100011.78;;;5.70;100.00
8318;BME280;4196;48.926;8.964;2024-02-21T00:58:39;100023.72;;;5.68;100.00
8318;BME280;4196;48.926;8.964;2024-02-21T01:01:25;100006.44;;;5.89;100.00
8318;BME280;4196;48.926;8.964;2024-02-21T01:04:12;100014.34;;;5.95;100.00
8318;BME280;4196;48.926;8.964;2024-02-21T01:06:59;99994.44;;;5.90;100.00
8318;BME280;4196;48.926;8.964;2024-02-21T01:09:45;100017.25;;;6.06;100.00
8318;BME280;4196;48.926;8.964;2024-02-21T01:12:32;99980.63;;;5.86;100.00
8318;BME280;4196;48.926;8.964;2024-02-21T01:15:19;99965.09;;;5.83;100.00
8318;BME280;4196;48.926;8.964;2024-02-21T01:18:05;99970.56;;;5.92;100.00
8318;BME280;4196;48.926;8.964;2024-02-21T01:20:52;99953.78;;;5.78;100.00
8318;BME280;4196;48.926;8.964;2024-02-21T01:23:38;99977.63;;;5.99;100.00
8318;BME280;4196;48.926;8.964;2024-02-21T01:26:25;99954.00;;;5.84;100.00
8318;BME280;4196;48.926;8.964;2024-02-21T01:29:11;99961.66;;;6.10;100.00
8318;BME280;4196;48.926;8.964;2024-02-21T01:31:57;99944.31;;;6.02;100.00
8318;BME280;4196;48.926;8.964;2024-02-21T01:34:44;99955.75;;;6.12;100.00
8318;BME280;4196;48.926;8.964;2024-02-21T01:37:31;99963.88;;;6.26;100.00
8318;BME280;4196;48.926;8.964;2024-02-21T01:40:17;99974.41;;;6.35;100.00
8318;BME280;4196;48.926;8.964;2024-02-21T01:43:04;99961.22;;;6.24;100.00
8318;BME280;4196;48.926;8.964;2024-02-21T01:46:01;99957.06;;;6.28;100.00
8318;BME280;4196;48.926;8.964;2024-02-21T01:48:48;99947.81;;;6.04;100.00
8318;BME280;4196;48.926;8.964;2024-02-21T01:51:36;99947.81;;;6.04;100.00
8318;BME280;4196;48.926;8.964;2024-02-21T01:54:23;99943.41;;;6.00;100.00
8318;BME280;4196;48.926;8.964;2024-02-21T01:57:09;99928.19;;;5.81;100.00
8318;BME280;4196;48.926;8.964;2024-02-21T01:59:55;99934.13;;;6.05;100.00
8318;BME280;4196;48.926;8.964;2024-02-21T02:02:42;99951.59;;;6.17;100.00
8318;BME280;4196;48.926;8.964;2024-02-21T02:05:29;99928.78;;;5.99;100.00
8318;BME280;4196;48.926;8.964;2024-02-21T02:08:16;99937.63;;;6.08;100.00
8318;BME280;4196;48.926;8.964;2024-02-21T02:11:03;99919.25;;;5.95;100.00
8318;BME280;4196;48.926;8.964;2024-02-21T02:13:50;99882.50;;;5.71;100.00
8318;BME280;4196;48.926;8.964;2024-02-21T02:16:37;99906.66;;;6.04;100.00
8318;BME280;4196;48.926;8.964;2024-02-21T02:19:24;99884.69;;;5.87;100.00
8318;BME280;4196;48.926;8.964;2024-02-21T02:22:15;99897.94;;;5.99;100.00
8318;BME280;4196;48.926;8.964;2024-02-21T02:25:04;99878.38;;;6.04;100.00
8318;BME280;4196;48.926;8.964;2024-02-21T02:27:51;99899.59;;;5.97;100.00
8318;BME280;4196;48.926;8.964;2024-02-21T02:30:37;99931.00;;;6.16;100.00
8318;BME280;4196;48.926;8.964;2024-02-21T02:33:23;99908.47;;;5.80;100.00
8318;BME280;4196;48.926;8.964;2024-02-21T02:36:10;99911.25;;;5.86;100.00
8318;BME280;4196;48.926;8.964;2024-02-21T02:38:56;99908.38;;;5.77;100.00
8318;BME280;4196;48.926;8.964;2024-02-21T02:41:42;99919.13;;;5.64;100.00
8318;BME280;4196;48.926;8.964;2024-02-21T02:44:29;99891.50;;;5.56;100.00
8318;BME280;4196;48.926;8.964;2024-02-21T02:47:15;99899.25;;;5.58;100.00
8318;BME280;4196;48.926;8.964;2024-02-21T02:50:02;99912.06;;;5.56;100.00
8318;BME280;4196;48.926;8.964;2024-02-21T02:52:49;99882.97;;;5.30;100.00
8318;BME280;4196;48.926;8.964;2024-02-21T02:55:36;99899.16;;;5.28;100.00
8318;BME280;4196;48.926;8.964;2024-02-21T02:58:23;99906.03;;;5.29;100.00
8318;BME280;4196;48.926;8.964;2024-02-21T03:01:09;99887.56;;;5.14;100.00
8318;BME280;4196;48.926;8.964;2024-02-21T03:03:56;99880.59;;;5.09;100.00
8318;BME280;4196;48.926;8.964;2024-02-21T03:06:42;99884.38;;;5.21;100.00
8318;BME280;4196;48.926;8.964;2024-02-21T03:09:29;99891.47;;;5.29;100.00
8318;BME280;4196;48.926;8.964;2024-02-21T03:12:16;99865.22;;;5.11;100.00
8318;BME280;4196;48.926;8.964;2024-02-21T03:15:11;99871.16;;;5.08;100.00
8318;BME280;4196;48.926;8.964;2024-02-21T03:17:57;99856.78;;;4.88;100.00
8318;BME280;4196;48.926;8.964;2024-02-21T03:20:44;99821.81;;;4.65;100.00
8318;BME280;4196;48.926;8.964;2024-02-21T03:23:30;99844.47;;;4.78;100.00
8318;BME280;4196;48.926;8.964;2024-02-21T03:26:17;99837.22;;;4.65;100.00
8318;BME280;4196;48.926;8.964;2024-02-21T03:29:03;99824.88;;;4.54;100.00
8318;BME280;4196;48.926;8.964;2024-02-21T03:31:50;99841.47;;;4.64;100.00
8318;BME280;4196;48.926;8.964;2024-02-21T03:34:36;99852.53;;;4.63;100.00
8318;BME280;4196;48.926;8.964;2024-02-21T03:37:23;99797.19;;;4.44;100.00
8318;BME280;4196;48.926;8.964;2024-02-21T03:40:10;99837.38;;;4.71;100.00
8318;BME280;4196;48.926;8.964;2024-02-21T03:42:56;99831.00;;;4.58;100.00
8318;BME280;4196;48.926;8.964;2024-02-21T03:45:43;99833.72;;;4.63;100.00
8318;BME280;4196;48.926;8.964;2024-02-21T03:48:29;99830.41;;;4.67;100.00
8318;BME280;4196;48.926;8.964;2024-02-21T03:51:15;99794.41;;;4.38;100.00
8318;BME280;4196;48.926;8.964;2024-02-21T03:54:02;99834.50;;;4.36;100.00
8318;BME280;4196;48.926;8.964;2024-02-21T03:56:48;99813.91;;;4.33;100.00
8318;BME280;4196;48.926;8.964;2024-02-21T03:59:35;99803.34;;;4.24;100.00
8318;BME280;4196;48.926;8.964;2024-02-21T04:02:21;99777.16;;;4.08;100.00
8318;BME280;4196;48.926;8.964;2024-02-21T04:05:08;99807.16;;;4.11;100.00
8318;BME280;4196;48.926;8.964;2024-02-21T04:07:57;99781.00;;;3.96;100.00
8318;BME280;4196;48.926;8.964;2024-02-21T04:10:45;99776.34;;;3.85;100.00
8318;BME280;4196;48.926;8.964;2024-02-21T04:13:31;99755.88;;;3.61;100.00
8318;BME280;4196;48.926;8.964;2024-02-21T04:16:18;99754.06;;;3.59;100.00
8318;BME280;4196;48.926;8.964;2024-02-21T04:19:04;99788.72;;;3.73;100.00
8318;BME280;4196;48.926;8.964;2024-02-21T04:21:51;99798.66;;;3.88;100.00
8318;BME280;4196;48.926;8.964;2024-02-21T04:24:38;99795.88;;;3.82;100.00
8318;BME280;4196;48.926;8.964;2024-02-21T04:27:24;99796.81;;;3.84;100.00
8318;BME280;4196;48.926;8.964;2024-02-21T04:30:11;99800.22;;;3.84;100.00
8318;BME280;4196;48.926;8.964;2024-02-21T04:32:57;99792.75;;;3.67;100.00
8318;BME280;4196;48.926;8.964;2024-02-21T04:35:44;99795.06;;;3.60;100.00
8318;BME280;4196;48.926;8.964;2024-02-21T04:38:31;99776.38;;;3.39;100.00
8318;BME280;4196;48.926;8.964;2024-02-21T04:41:17;99795.09;;;3.38;100.00
8318;BME280;4196;48.926;8.964;2024-02-21T04:44:04;99817.44;;;3.42;100.00
8318;BME280;4196;48.926;8.964;2024-02-21T04:46:51;99802.19;;;3.45;100.00
8318;BME280;4196;48.926;8.964;2024-02-21T04:49:38;99793.94;;;3.52;100.00
8318;BME280;4196;48.926;8.964;2024-02-21T04:52:25;99790.09;;;3.41;100.00
8318;BME280;4196;48.926;8.964;2024-02-21T04:55:11;99767.13;;;3.20;100.00
8318;BME280;4196;48.926;8.964;2024-02-21T05:02:31;99772.63;;;3.08;100.00
8318;BME280;4196;48.926;8.964;2024-02-21T05:05:17;99779.44;;;3.08;100.00
8318;BME280;4196;48.926;8.964;2024-02-21T05:08:04;99793.19;;;3.10;100.00
8318;BME280;4196;48.926;8.964;2024-02-21T05:10:51;99766.94;;;2.93;100.00
8318;BME280;4196;48.926;8.964;2024-02-21T05:13:37;99763.06;;;3.03;100.00
8318;BME280;4196;48.926;8.964;2024-02-21T05:16:24;99756.38;;;3.06;100.00
8318;BME280;4196;48.926;8.964;2024-02-21T05:19:10;99752.38;;;3.13;100.00
8318;BME280;4196;48.926;8.964;2024-02-21T05:21:58;99745.03;;;3.22;100.00
8318;BME280;4196;48.926;8.964;2024-02-21T05:24:45;99735.41;;;3.17;100.00
8318;BME280;4196;48.926;8.964;2024-02-21T05:27:31;99725.56;;;3.03;100.00
8318;BME280;4196;48.926;8.964;2024-02-21T05:30:18;99732.69;;;3.34;100.00
8318;BME280;4196;48.926;8.964;2024-02-21T05:33:07;99703.22;;;3.22;100.00
8318;BME280;4196;48.926;8.964;2024-02-21T05:35:54;99713.69;;;3.05;100.00
8318;BME280;4196;48.926;8.964;2024-02-21T05:38:41;99737.97;;;3.17;100.00
8318;BME280;4196;48.926;8.964;2024-02-21T05:41:27;99728.28;;;3.08;100.00
8318;BME280;4196;48.926;8.964;2024-02-21T05:44:14;99721.19;;;3.01;100.00
8318;BME280;4196;48.926;8.964;2024-02-21T05:47:00;99719.84;;;2.88;100.00
8318;BME280;4196;48.926;8.964;2024-02-21T05:49:47;99708.22;;;2.74;100.00
8318;BME280;4196;48.926;8.964;2024-02-21T05:52:34;99738.78;;;2.93;100.00
8318;BME280;4196;48.926;8.964;2024-02-21T05:55:22;99733.22;;;2.81;100.00
8318;BME280;4196;48.926;8.964;2024-02-21T05:58:09;99728.41;;;2.67;100.00
8318;BME280;4196;48.926;8.964;2024-02-21T06:00:59;99699.88;;;2.57;100.00
8318;BME280;4196;48.926;8.964;2024-02-21T06:03:47;99687.88;;;2.33;100.00
8318;BME280;4196;48.926;8.964;2024-02-21T06:06:34;99698.22;;;2.36;100.00
8318;BME280;4196;48.926;8.964;2024-02-21T06:09:20;99604.03;;;1.81;100.00
8318;BME280;4196;48.926;8.964;2024-02-21T06:12:07;99700.34;;;2.26;100.00
8318;BME280;4196;48.926;8.964;2024-02-21T06:14:53;99676.34;;;2.01;100.00
8318;BME280;4196;48.926;8.964;2024-02-21T06:17:40;99710.16;;;2.16;100.00
8318;BME280;4196;48.926;8.964;2024-02-21T06:20:26;99718.47;;;2.11;100.00
8318;BME280;4196;48.926;8.964;2024-02-21T06:23:15;99725.50;;;2.16;100.00
8318;BME280;4196;48.926;8.964;2024-02-21T06:26:01;99706.44;;;2.08;100.00
8318;BME280;4196;48.926;8.964;2024-02-21T06:28:48;99669.09;;;1.91;100.00
8318;BME280;4196;48.926;8.964;2024-02-21T06:31:35;99714.22;;;2.11;100.00
8318;BME280;4196;48.926;8.964;2024-02-21T06:34:21;99720.53;;;2.20;100.00
8318;BME280;4196;48.926;8.964;2024-02-21T06:37:08;99718.91;;;2.22;100.00
8318;BME280;4196;48.926;8.964;2024-02-21T06:39:55;99700.94;;;2.20;100.00
8318;BME280;4196;48.926;8.964;2024-02-21T06:42:41;99671.66;;;2.12;100.00
8318;BME280;4196;48.926;8.964;2024-02-21T06:45:27;99697.97;;;2.30;100.00
8318;BME280;4196;48.926;8.964;2024-02-21T06:48:14;99702.69;;;2.42;100.00
8318;BME280;4196;48.926;8.964;2024-02-21T06:51:01;99683.06;;;2.41;100.00
8318;BME280;4196;48.926;8.964;2024-02-21T06:53:48;99669.63;;;2.47;100.00
8318;BME280;4196;48.926;8.964;2024-02-21T06:56:34;99676.25;;;2.62;100.00
8318;BME280;4196;48.926;8.964;2024-02-21T06:59:20;99684.56;;;2.79;100.00
8318;BME280;4196;48.926;8.964;2024-02-21T07:02:07;99666.59;;;2.78;100.00
8318;BME280;4196;48.926;8.964;2024-02-21T07:04:54;99704.66;;;3.15;100.00
8318;BME280;4196;48.926;8.964;2024-02-21T07:07:40;99676.56;;;3.17;100.00
8318;BME280;4196;48.926;8.964;2024-02-21T07:10:27;99673.22;;;3.18;100.00
8318;BME280;4196;48.926;8.964;2024-02-21T07:13:15;99668.75;;;3.36;100.00
8318;BME280;4196;48.926;8.964;2024-02-21T07:16:02;99655.25;;;3.40;100.00
8318;BME280;4196;48.926;8.964;2024-02-21T07:18:48;99670.31;;;3.56;100.00
8318;BME280;4196;48.926;8.964;2024-02-21T07:21:35;99707.41;;;3.92;100.00
8318;BME280;4196;48.926;8.964;2024-02-21T07:24:25;99690.63;;;4.01;100.00
8318;BME280;4196;48.926;8.964;2024-02-21T07:27:14;99651.75;;;4.13;100.00
8318;BME280;4196;48.926;8.964;2024-02-21T07:30:01;99659.50;;;4.42;100.00
8318;BME280;4196;48.926;8.964;2024-02-21T07:32:50;99680.28;;;4.78;100.00
8318;BME280;4196;48.926;8.964;2024-02-21T07:35:37;99666.81;;;4.85;100.00
8318;BME280;4196;48.926;8.964;2024-02-21T07:38:24;99647.00;;;5.09;100.00
8318;BME280;4196;48.926;8.964;2024-02-21T07:41:11;99659.44;;;5.26;100.00
8318;BME280;4196;48.926;8.964;2024-02-21T07:43:57;99655.25;;;5.29;100.00
8318;BME280;4196;48.926;8.964;2024-02-21T07:46:44;99576.44;;;4.95;100.00
8318;BME280;4196;48.926;8.964;2024-02-21T07:49:31;99627.78;;;5.57;100.00
8318;BME280;4196;48.926;8.964;2024-02-21T07:52:17;99628.16;;;5.71;100.00
8318;BME280;4196;48.926;8.964;2024-02-21T07:55:04;99639.16;;;5.98;100.00
8318;BME280;4196;48.926;8.964;2024-02-21T07:57:51;99644.44;;;6.04;100.00
8318;BME280;4196;48.926;8.964;2024-02-21T08:00:37;99630.50;;;5.96;100.00
8318;BME280;4196;48.926;8.964;2024-02-21T08:03:24;99656.34;;;6.01;100.00
8318;BME280;4196;48.926;8.964;2024-02-21T08:06:13;99662.84;;;6.21;100.00
8318;BME280;4196;48.926;8.964;2024-02-21T08:08:59;99626.06;;;6.24;100.00
8318;BME280;4196;48.926;8.964;2024-02-21T08:11:46;99621.78;;;6.24;100.00
8318;BME280;4196;48.926;8.964;2024-02-21T08:14:33;99635.25;;;6.50;100.00
8318;BME280;4196;48.926;8.964;2024-02-21T08:17:19;99637.19;;;6.61;97.47
8318;BME280;4196;48.926;8.964;2024-02-21T08:20:06;99585.47;;;6.48;93.85
8318;BME280;4196;48.926;8.964;2024-02-21T08:22:52;99639.66;;;6.95;93.71
8318;BME280;4196;48.926;8.964;2024-02-21T08:25:39;99621.84;;;7.05;91.86
8318;BME280;4196;48.926;8.964;2024-02-21T08:28:26;99637.69;;;7.24;92.17
8318;BME280;4196;48.926;8.964;2024-02-21T08:31:19;99635.94;;;7.22;91.40
8318;BME280;4196;48.926;8.964;2024-02-21T08:34:06;99589.75;;;7.33;91.80
8318;BME280;4196;48.926;8.964;2024-02-21T08:36:53;99599.66;;;7.57;92.20
8318;BME280;4196;48.926;8.964;2024-02-21T08:39:39;99597.47;;;7.80;92.81
8318;BME280;4196;48.926;8.964;2024-02-21T08:42:26;99607.84;;;7.81;92.06
8318;BME280;4196;48.926;8.964;2024-02-21T08:45:13;99591.41;;;7.76;91.29
8318;BME280;4196;48.926;8.964;2024-02-21T08:47:59;99625.66;;;8.20;87.28
8318;BME280;4196;48.926;8.964;2024-02-21T08:50:45;99610.44;;;8.36;85.12
8318;BME280;4196;48.926;8.964;2024-02-21T08:53:32;99596.78;;;8.41;83.16
8318;BME280;4196;48.926;8.964;2024-02-21T08:56:19;99615.22;;;8.66;80.21
8318;BME280;4196;48.926;8.964;2024-02-21T08:59:05;99599.31;;;8.38;81.41
8318;BME280;4196;48.926;8.964;2024-02-21T09:01:52;99611.88;;;8.73;79.72
8318;BME280;4196;48.926;8.964;2024-02-21T09:04:39;99601.59;;;8.79;79.24
8318;BME280;4196;48.926;8.964;2024-02-21T09:07:26;99575.47;;;8.55;80.12
8318;BME280;4196;48.926;8.964;2024-02-21T09:10:12;99588.38;;;8.56;81.62
8318;BME280;4196;48.926;8.964;2024-02-21T09:12:58;99592.91;;;8.71;82.44
8318;BME280;4196;48.926;8.964;2024-02-21T09:15:45;99601.72;;;8.88;78.25
8318;BME280;4196;48.926;8.964;2024-02-21T09:18:32;99577.44;;;8.74;77.81
8318;BME280;4196;48.926;8.964;2024-02-21T09:21:18;99572.31;;;8.77;77.08
8318;BME280;4196;48.926;8.964;2024-02-21T09:24:05;99578.50;;;8.90;75.65
8318;BME280;4196;48.926;8.964;2024-02-21T09:26:52;99584.44;;;8.81;76.33
8318;BME280;4196;48.926;8.964;2024-02-21T09:29:38;99584.66;;;9.00;76.24
8318;BME280;4196;48.926;8.964;2024-02-21T09:32:25;99531.84;;;8.73;76.47
8318;BME280;4196;48.926;8.964;2024-02-21T09:35:13;99588.22;;;9.11;76.24
8318;BME280;4196;48.926;8.964;2024-02-21T09:37:59;99546.81;;;9.05;75.98
8318;BME280;4196;48.926;8.964;2024-02-21T09:40:46;99533.97;;;9.12;73.15
8318;BME280;4196;48.926;8.964;2024-02-21T09:43:33;99513.28;;;9.09;74.02
8318;BME280;4196;48.926;8.964;2024-02-21T09:46:25;99553.38;;;9.54;74.11
8318;BME280;4196;48.926;8.964;2024-02-21T09:49:35;99562.03;;;9.59;74.73
8318;BME280;4196;48.926;8.964;2024-02-21T09:52:26;99542.28;;;9.66;75.54
8318;BME280;4196;48.926;8.964;2024-02-21T09:55:13;99523.47;;;9.85;71.77
8318;BME280;4196;48.926;8.964;2024-02-21T09:58:04;99524.50;;;10.12;69.06
8318;BME280;4196;48.926;8.964;2024-02-21T10:00:51;99523.63;;;10.07;69.43
8318;BME280;4196;48.926;8.964;2024-02-21T10:03:37;99541.88;;;10.27;68.23
8318;BME280;4196;48.926;8.964;2024-02-21T10:06:24;99521.94;;;10.10;68.30
8318;BME280;4196;48.926;8.964;2024-02-21T10:09:24;99535.16;;;10.53;67.79
8318;BME280;4196;48.926;8.964;2024-02-21T10:12:14;99527.28;;;10.36;66.66
8318;BME280;4196;48.926;8.964;2024-02-21T10:15:05;99531.69;;;10.50;65.92
8318;BME280;4196;48.926;8.964;2024-02-21T10:17:59;99517.84;;;10.49;66.99
8318;BME280;4196;48.926;8.964;2024-02-21T10:20:46;99488.47;;;10.39;65.36
8318;BME280;4196;48.926;8.964;2024-02-21T10:23:43;99517.94;;;10.63;65.58
8318;BME280;4196;48.926;8.964;2024-02-21T10:26:30;99467.66;;;10.21;65.52
8318;BME280;4196;48.926;8.964;2024-02-21T10:29:17;99480.81;;;10.62;65.36
8318;BME280;4196;48.926;8.964;2024-02-21T10:32:13;99468.75;;;10.66;65.67
8318;BME280;4196;48.926;8.964;2024-02-21T10:35:04;99484.34;;;10.84;65.01
8318;BME280;4196;48.926;8.964;2024-02-21T10:37:51;99465.38;;;11.01;64.87
8318;BME280;4196;48.926;8.964;2024-02-21T10:40:41;99443.78;;;10.91;62.16
8318;BME280;4196;48.926;8.964;2024-02-21T10:43:30;99481.81;;;11.15;62.13
8318;BME280;4196;48.926;8.964;2024-02-21T10:46:21;99478.41;;;11.45;61.76
8318;BME280;4196;48.926;8.964;2024-02-21T10:49:18;99472.38;;;11.42;60.77
8318;BME280;4196;48.926;8.964;2024-02-21T10:55:38;99441.25;;;11.39;62.74
8318;BME280;4196;48.926;8.964;2024-02-21T10:58:28;99437.78;;;11.33;62.15
8318;BME280;4196;48.926;8.964;2024-02-21T11:01:18;99457.66;;;11.64;60.91
8318;BME280;4196;48.926;8.964;2024-02-21T11:04:06;99429.13;;;11.62;59.85
8318;BME280;4196;48.926;8.964;2024-02-21T11:06:53;99429.13;;;11.59;61.93
8318;BME280;4196;48.926;8.964;2024-02-21T11:09:40;99429.09;;;11.74;60.33
8318;BME280;4196;48.926;8.964;2024-02-21T11:12:36;99414.38;;;12.04;60.95
8318;BME280;4196;48.926;8.964;2024-02-21T11:15:26;99402.25;;;12.09;60.76
8318;BME280;4196;48.926;8.964;2024-02-21T11:18:23;99398.72;;;12.28;57.39
8318;BME280;4196;48.926;8.964;2024-02-21T11:21:09;99398.84;;;11.84;59.12
8318;BME280;4196;48.926;8.964;2024-02-21T11:23:56;99384.16;;;11.63;59.97
8318;BME280;4196;48.926;8.964;2024-02-21T11:26:48;99372.03;;;11.90;60.69
8318;BME280;4196;48.926;8.964;2024-02-21T11:29:49;99409.06;;;12.33;59.39
8318;BME280;4196;48.926;8.964;2024-02-21T11:32:38;99361.50;;;12.31;59.22
8318;BME280;4196;48.926;8.964;2024-02-21T11:35:30;99394.19;;;12.70;58.83
8318;BME280;4196;48.926;8.964;2024-02-21T11:38:17;99362.19;;;12.61;57.46
8318;BME280;4196;48.926;8.964;2024-02-21T11:41:08;99381.03;;;12.96;56.10
8318;BME280;4196;48.926;8.964;2024-02-21T11:43:54;99339.47;;;12.90;56.25
8318;BME280;4196;48.926;8.964;2024-02-21T11:46:41;99361.09;;;12.97;58.47
8318;BME280;4196;48.926;8.964;2024-02-21T11:49:29;99369.66;;;13.08;58.10
8318;BME280;4196;48.926;8.964;2024-02-21T11:52:16;99337.69;;;12.95;57.85
8318;BME280;4196;48.926;8.964;2024-02-21T11:55:05;99335.81;;;13.14;55.66
8318;BME280;4196;48.926;8.964;2024-02-21T11:57:54;99349.63;;;13.18;53.93
8318;BME280;4196;48.926;8.964;2024-02-21T12:00:41;99332.41;;;13.09;53.79
8318;BME280;4196;48.926;8.964;2024-02-21T12:03:27;99298.84;;;12.81;55.59
8318;BME280;4196;48.926;8.964;2024-02-21T12:06:16;99316.00;;;13.01;55.71
8318;BME280;4196;48.926;8.964;2024-02-21T12:09:07;99332.59;;;12.86;55.73
8318;BME280;4196;48.926;8.964;2024-02-21T12:12:03;99286.94;;;12.50;55.21
8318;BME280;4196;48.926;8.964;2024-02-21T12:14:59;99305.84;;;12.70;54.61
8318;BME280;4196;48.926;8.964;2024-02-21T12:17:45;99275.34;;;12.92;55.67
8318;BME280;4196;48.926;8.964;2024-02-21T12:20:31;99265.78;;;12.96;54.07
8318;BME280;4196;48.926;8.964;2024-02-21T12:23:22;99226.97;;;12.79;56.07
8318;BME280;4196;48.926;8.964;2024-02-21T12:26:12;99256.00;;;13.21;55.14
8318;BME280;4196;48.926;8.964;2024-02-21T12:28:59;99247.31;;;13.25;55.08
8318;BME280;4196;48.926;8.964;2024-02-21T12:31:45;99235.22;;;13.19;55.52
8318;BME280;4196;48.926;8.964;2024-02-21T12:34:33;99229.16;;;13.20;53.71
8318;BME280;4196;48.926;8.964;2024-02-21T12:37:38;99206.84;;;12.98;53.75
8318;BME280;4196;48.926;8.964;2024-02-21T12:40:25;99246.53;;;13.15;54.65
8318;BME280;4196;48.926;8.964;2024-02-21T12:43:12;99239.69;;;13.08;55.16
8318;BME280;4196;48.926;8.964;2024-02-21T12:46:01;99205.16;;;12.94;53.57
8318;BME280;4196;48.926;8.964;2024-02-21T12:48:47;99202.50;;;12.98;53.28
8318;BME280;4196;48.926;8.964;2024-02-21T12:51:35;99227.47;;;13.16;54.37
8318;BME280;4196;48.926;8.964;2024-02-21T12:54:21;99187.94;;;12.84;54.65
8318;BME280;4196;48.926;8.964;2024-02-21T12:57:08;99210.81;;;12.45;56.43
8318;BME280;4196;48.926;8.964;2024-02-21T12:59:54;99180.44;;;12.50;56.54
8318;BME280;4196;48.926;8.964;2024-02-21T13:02:41;99171.94;;;12.32;57.62
8318;BME280;4196;48.926;8.964;2024-02-21T13:05:28;99197.50;;;12.77;57.41
8318;BME280;4196;48.926;8.964;2024-02-21T13:08:15;99190.88;;;12.48;57.34
8318;BME280;4196;48.926;8.964;2024-02-21T13:11:02;99186.22;;;12.82;57.31
8318;BME280;4196;48.926;8.964;2024-02-21T13:13:48;99161.59;;;12.26;58.09
8318;BME280;4196;48.926;8.964;2024-02-21T13:16:34;99153.78;;;12.29;57.72
8318;BME280;4196;48.926;8.964;2024-02-21T13:19:25;99090.00;;;11.98;58.03
8318;BME280;4196;48.926;8.964;2024-02-21T13:22:12;99144.38;;;12.16;58.11
8318;BME280;4196;48.926;8.964;2024-02-21T13:24:59;99129.56;;;12.27;57.92
8318;BME280;4196;48.926;8.964;2024-02-21T13:27:45;99122.91;;;11.93;58.92
8318;BME280;4196;48.926;8.964;2024-02-21T13:30:32;99115.56;;;12.44;57.01
8318;BME280;4196;48.926;8.964;2024-02-21T13:33:19;99100.97;;;12.33;57.66
8318;BME280;4196;48.926;8.964;2024-02-21T13:36:06;99121.81;;;12.21;59.05
8318;BME280;4196;48.926;8.964;2024-02-21T13:38:52;99089.13;;;12.00;58.74
8318;BME280;4196;48.926;8.964;2024-02-21T13:41:39;99080.38;;;12.11;57.93
8318;BME280;4196;48.926;8.964;2024-02-21T13:44:26;99076.28;;;11.77;58.66
8318;BME280;4196;48.926;8.964;2024-02-21T13:47:15;99084.03;;;11.80;58.31
8318;BME280;4196;48.926;8.964;2024-02-21T13:50:02;99083.19;;;11.84;58.54
8318;BME280;4196;48.926;8.964;2024-02-21T13:52:50;99055.63;;;11.68;59.32
8318;BME280;4196;48.926;8.964;2024-02-21T13:55:36;99053.94;;;11.58;59.38
8318;BME280;4196;48.926;8.964;2024-02-21T13:58:23;99084.69;;;12.13;57.19
8318;BME280;4196;48.926;8.964;2024-02-21T14:01:09;99067.41;;;12.12;57.75
8318;BME280;4196;48.926;8.964;2024-02-21T14:03:56;99060.63;;;11.93;58.74
8318;BME280;4196;48.926;8.964;2024-02-21T14:06:42;99057.94;;;12.05;58.54
8318;BME280;4196;48.926;8.964;2024-02-21T14:09:29;99048.56;;;11.89;58.85
8318;BME280;4196;48.926;8.964;2024-02-21T14:12:16;99095.06;;;12.13;58.86
8318;BME280;4196;48.926;8.964;2024-02-21T14:15:04;99067.44;;;12.06;59.27
8318;BME280;4196;48.926;8.964;2024-02-21T14:17:51;99033.03;;;11.84;57.87
8318;BME280;4196;48.926;8.964;2024-02-21T14:20:37;99021.00;;;11.72;59.75
8318;BME280;4196;48.926;8.964;2024-02-21T14:23:24;99025.13;;;11.96;56.65
8318;BME280;4196;48.926;8.964;2024-02-21T14:26:10;99024.28;;;11.96;57.25
8318;BME280;4196;48.926;8.964;2024-02-21T14:28:57;99050.00;;;12.23;57.10
8318;BME280;4196;48.926;8.964;2024-02-21T14:31:44;99017.19;;;12.16;56.51
8318;BME280;4196;48.926;8.964;2024-02-21T14:34:30;98978.53;;;11.85;56.54
8318;BME280;4196;48.926;8.964;2024-02-21T14:37:17;99011.34;;;11.94;56.72
8318;BME280;4196;48.926;8.964;2024-02-21T14:40:04;99009.47;;;12.07;57.19
8318;BME280;4196;48.926;8.964;2024-02-21T14:42:51;98988.94;;;11.79;59.50
8318;BME280;4196;48.926;8.964;2024-02-21T14:45:38;98970.72;;;11.90;59.06
8318;BME280;4196;48.926;8.964;2024-02-21T14:48:26;99010.59;;;11.75;59.66
8318;BME280;4196;48.926;8.964;2024-02-21T14:51:14;98979.69;;;11.48;60.82
8318;BME280;4196;48.926;8.964;2024-02-21T14:54:01;98989.34;;;11.23;61.47
8318;BME280;4196;48.926;8.964;2024-02-21T14:56:47;99007.28;;;11.56;61.71
8318;BME280;4196;48.926;8.964;2024-02-21T14:59:34;98969.63;;;11.00;62.67
8318;BME280;4196;48.926;8.964;2024-02-21T15:02:20;98962.59;;;11.21;62.49
8318;BME280;4196;48.926;8.964;2024-02-21T15:05:07;98942.91;;;10.92;63.46
8318;BME280;4196;48.926;8.964;2024-02-21T15:07:56;98929.75;;;11.21;63.10
8318;BME280;4196;48.926;8.964;2024-02-21T15:10:44;98940.91;;;11.32;63.53
8318;BME280;4196;48.926;8.964;2024-02-21T15:13:30;98926.31;;;11.24;63.36
8318;BME280;4196;48.926;8.964;2024-02-21T15:16:17;98934.00;;;11.30;64.38
8318;BME280;4196;48.926;8.964;2024-02-21T15:19:03;98932.06;;;11.58;62.87